Time;durP1;ratioP1;P1;durP2;ratioP2;P2;SDS_P1;SDS_P2;PMS_P1;PMS_P2;Temp;Humidity;BMP_temperature;BMP_pressure;BME280_temperature;BME280_humidity;BME280_pressure;Samples;Min_cycle;Max_cycle;Signal;HPM_P1;HPM_P2
2022/04/19 00:00:28;;;;;;;;;18.00;15.00;;;;;;;;5071752;28;49658;-68
2022/04/19 00:02:53;;;;;;;;;14.50;13.25;;;;;;;;5071789;28;49782;-68
2022/04/19 00:05:18;;;;;;;;;11.75;10.50;;;;;;;;5071865;28;49881;-68
2022/04/19 00:07:44;;;;;;;;;17.50;14.75;;;;;;;;5071491;27;50432;-68
2022/04/19 00:10:10;;;;;;;;;12.25;11.00;;;;;;;;5071657;28;49712;-68
2022/04/19 00:12:35;;;;;;;;;10.75;9.75;;;;;;;;5071695;28;50111;-68
2022/04/19 00:15:01;;;;;;;;;15.50;12.50;;;;;;;;5071461;28;49685;-68
2022/04/19 00:17:26;;;;;;;;;14.25;13.25;;;;;;;;5071443;28;50239;-68
2022/04/19 00:19:51;;;;;;;;;12.00;11.75;;;;;;;;5071398;27;49763;-68
2022/04/19 00:22:20;;;;;;;;;15.50;12.75;;;;;;;;5071583;28;49977;-68
2022/04/19 00:24:45;;;;;;;;;12.00;10.00;;;;;;;;5071297;28;49844;-68
2022/04/19 00:27:10;;;;;;;;;7.50;7.50;;;;;;;;5071142;28;49663;-68
2022/04/19 00:29:35;;;;;;;;;9.00;9.00;;;;;;;;5071136;28;49801;-68
2022/04/19 00:32:01;;;;;;;;;15.50;9.75;;;;;;;;5071511;28;49892;-68
2022/04/19 00:34:27;;;;;;;;;10.75;8.50;;;;;;;;5071602;28;49676;-68
2022/04/19 00:36:52;;;;;;;;;6.00;6.00;;;;;;;;5071106;28;50288;-68
2022/04/19 00:39:17;;;;;;;;;11.00;10.25;;;;;;;;5071027;27;49896;-68
2022/04/19 00:41:42;;;;;;;;;10.00;10.00;;;;;;;;5070369;28;49985;-68
2022/04/19 00:44:08;;;;;;;;;6.75;6.00;;;;;;;;5071004;28;50023;-68
2022/04/19 00:46:33;;;;;;;;;10.00;7.75;;;;;;;;5070942;28;50309;-68
2022/04/19 00:48:58;;;;;;;;;11.75;11.75;;;;;;;;5071003;28;49675;-68
2022/04/19 00:51:24;;;;;;;;;16.75;13.25;;;;;;;;5052909;28;49931;-68
2022/04/19 00:53:49;;;;;;;;;14.75;11.50;;;;;;;;5070860;28;49782;-69
2022/04/19 00:56:15;;;;;;;;;13.75;12.25;;;;;;;;5070909;28;50013;-67
2022/04/19 00:58:40;;;;;;;;;15.50;13.75;;;;;;;;5070459;27;49751;-67
2022/04/19 01:01:05;;;;;;;;;15.00;12.50;;;;;;;;5071017;28;50003;-67
2022/04/19 01:03:30;;;;;;;;;11.75;11.75;;;;;;;;5071094;27;50193;-69
2022/04/19 01:05:56;;;;;;;;;15.50;14.50;;;;;;;;5070702;28;50396;-68
2022/04/19 01:08:23;;;;;;;;;9.75;9.75;;;;;;;;5071065;28;50002;-68
2022/04/19 01:10:48;;;;;;;;;11.00;11.00;;;;;;;;5070740;28;49693;-68
2022/04/19 01:13:17;;;;;;;;;10.50;9.25;;;;;;;;5070679;27;50114;-69
2022/04/19 01:15:46;;;;;;;;;14.00;11.75;;;;;;;;5070542;28;50260;-68
2022/04/19 01:18:11;;;;;;;;;11.75;10.75;;;;;;;;5070585;28;49713;-68
2022/04/19 01:20:38;;;;;;;;;16.00;11.00;;;;;;;;5070380;28;49629;-68
2022/04/19 01:23:04;;;;;;;;;11.75;10.00;;;;;;;;5070919;28;49610;-68
2022/04/19 01:25:29;;;;;;;;;9.75;9.75;;;;;;;;5070586;28;50375;-68
2022/04/19 01:27:54;;;;;;;;;12.25;8.00;;;;;;;;5070319;28;49943;-68
2022/04/19 01:30:19;;;;;;;;;9.00;9.00;;;;;;;;5070735;28;49737;-68
2022/04/19 01:32:44;;;;;;;;;15.25;9.25;;;;;;;;5070547;28;49743;-71
2022/04/19 01:35:11;;;;;;;;;11.50;8.75;;;;;;;;5070273;28;49750;-69
2022/04/19 01:37:36;;;;;;;;;10.75;10.00;;;;;;;;5073252;28;49664;-68
2022/04/19 01:40:17;;;;;;;;;9.50;8.50;;;;;;;;5073926;28;49841;-68
2022/04/19 01:42:58;;;;;;;;;12.25;10.00;;;;;;;;5074157;27;49919;-68
2022/04/19 01:45:24;;;;;;;;;11.75;11.75;;;;;;;;5074010;28;50391;-68
2022/04/19 01:47:53;;;;;;;;;8.00;7.25;;;;;;;;5074007;28;50187;-68
2022/04/19 01:50:19;;;;;;;;;6.75;6.75;;;;;;;;5073833;28;49505;-68
2022/04/19 01:52:45;;;;;;;;;7.50;7.25;;;;;;;;5074014;28;49645;-69
2022/04/19 01:55:13;;;;;;;;;9.00;8.50;;;;;;;;5073392;28;50349;-68
2022/04/19 01:57:39;;;;;;;;;7.50;7.50;;;;;;;;5055503;28;49727;-68
2022/04/19 02:00:05;;;;;;;;;9.75;9.75;;;;;;;;5073613;28;49744;-68
2022/04/19 02:02:30;;;;;;;;;7.00;7.00;;;;;;;;5073931;28;49653;-68
2022/04/19 02:04:56;;;;;;;;;12.00;9.25;;;;;;;;5073481;28;49856;-69
2022/04/19 02:07:21;;;;;;;;;4.75;4.75;;;;;;;;5073649;28;49765;-68
2022/04/19 02:09:47;;;;;;;;;6.50;6.50;;;;;;;;5073689;27;50053;-68
2022/04/19 02:12:12;;;;;;;;;8.00;8.00;;;;;;;;5073510;28;49987;-68
2022/04/19 02:14:41;;;;;;;;;7.00;7.00;;;;;;;;5072908;27;49966;-68
2022/04/19 02:17:07;;;;;;;;;8.75;8.00;;;;;;;;5073478;28;49774;-68
2022/04/19 02:19:33;;;;;;;;;6.25;5.25;;;;;;;;5073356;28;49736;-67
2022/04/19 02:21:58;;;;;;;;;9.75;9.75;;;;;;;;5073638;28;49624;-67
2022/04/19 02:24:23;;;;;;;;;7.00;6.50;;;;;;;;5073317;28;50811;-67
2022/04/19 02:26:48;;;;;;;;;7.50;5.00;;;;;;;;5073255;28;49724;-68
2022/04/19 02:29:15;;;;;;;;;5.50;5.50;;;;;;;;5073005;28;49945;-67
2022/04/19 02:31:40;;;;;;;;;8.00;5.25;;;;;;;;5073546;28;49791;-67
2022/04/19 02:34:06;;;;;;;;;9.25;6.50;;;;;;;;5073165;27;50415;-67
2022/04/19 02:36:32;;;;;;;;;6.50;5.25;;;;;;;;5055063;28;49791;-68
2022/04/19 02:38:59;;;;;;;;;6.75;4.50;;;;;;;;5073292;28;49664;-68
2022/04/19 02:41:24;;;;;;;;;9.00;4.00;;;;;;;;5055432;28;49788;-68
2022/04/19 02:43:49;;;;;;;;;6.75;4.50;;;;;;;;5072826;27;49848;-69
2022/04/19 02:46:14;;;;;;;;;8.50;7.00;;;;;;;;5073224;28;50328;-68
2022/04/19 02:48:40;;;;;;;;;7.50;7.50;;;;;;;;5072936;27;49721;-67
2022/04/19 02:51:05;;;;;;;;;7.00;7.00;;;;;;;;5073158;28;49699;-68
2022/04/19 02:53:32;;;;;;;;;8.25;7.25;;;;;;;;5072659;28;50443;-68
2022/04/19 02:55:59;;;;;;;;;8.00;8.00;;;;;;;;5066553;27;49994;-68
2022/04/19 02:58:25;;;;;;;;;6.25;6.25;;;;;;;;5072692;27;49731;-68
2022/04/19 03:00:50;;;;;;;;;9.50;5.50;;;;;;;;5072976;27;50184;-68
2022/04/19 03:03:15;;;;;;;;;8.00;7.00;;;;;;;;5072500;28;49861;-68
2022/04/19 03:05:41;;;;;;;;;8.75;7.00;;;;;;;;5072537;28;49838;-68
2022/04/19 03:08:07;;;;;;;;;5.75;5.75;;;;;;;;5072673;27;49849;-68
2022/04/19 03:10:32;;;;;;;;;10.00;8.00;;;;;;;;5072692;28;49968;-68
2022/04/19 03:12:58;;;;;;;;;10.25;9.00;;;;;;;;5072158;28;50559;-68
2022/04/19 03:15:23;;;;;;;;;10.00;7.00;;;;;;;;5054466;28;49636;-68
2022/04/19 03:17:49;;;;;;;;;8.25;7.00;;;;;;;;5072707;28;49752;-68
2022/04/19 03:20:15;;;;;;;;;4.50;4.50;;;;;;;;5072992;28;49657;-68
2022/04/19 03:28:11;;;;;;;;;5.25;5.25;;;;;;;;5066498;28;49959;-68
2022/04/19 03:30:36;;;;;;;;;8.25;7.00;;;;;;;;5072413;27;49792;-68
2022/04/19 03:33:02;;;;;;;;;8.25;7.75;;;;;;;;5072250;28;49771;-68
2022/04/19 03:35:27;;;;;;;;;5.25;5.25;;;;;;;;5072458;28;49529;-68
2022/04/19 03:37:52;;;;;;;;;9.50;7.00;;;;;;;;5072261;28;49734;-68
2022/04/19 03:40:17;;;;;;;;;7.00;7.00;;;;;;;;5053925;28;49847;-68
2022/04/19 03:42:43;;;;;;;;;9.00;9.00;;;;;;;;5071635;28;49843;-68
2022/04/19 03:45:09;;;;;;;;;6.00;4.00;;;;;;;;5072032;28;49782;-68
2022/04/19 03:47:35;;;;;;;;;6.25;4.75;;;;;;;;5072260;28;49982;-67
2022/04/19 03:50:00;;;;;;;;;6.00;4.00;;;;;;;;5072406;28;49914;-67
2022/04/19 03:52:26;;;;;;;;;7.25;7.25;;;;;;;;5072339;28;50926;-68
2022/04/19 03:54:51;;;;;;;;;6.50;6.50;;;;;;;;5071905;28;49827;-68
2022/04/19 03:57:17;;;;;;;;;7.25;5.25;;;;;;;;5072030;28;49997;-67
2022/04/19 03:59:43;;;;;;;;;8.50;7.00;;;;;;;;5071123;28;50024;-67
2022/04/19 04:02:08;;;;;;;;;4.00;3.25;;;;;;;;5071749;28;49774;-67
2022/04/19 04:04:35;;;;;;;;;8.00;5.50;;;;;;;;5071973;28;49794;-67
2022/04/19 04:07:04;;;;;;;;;4.50;4.00;;;;;;;;5071957;28;49616;-67
2022/04/19 04:09:32;;;;;;;;;8.00;4.75;;;;;;;;5072139;28;49666;-68
2022/04/19 04:12:02;;;;;;;;;11.00;5.50;;;;;;;;5071278;27;51020;-68
2022/04/19 04:14:27;;;;;;;;;7.00;7.00;;;;;;;;5071680;28;49839;-68
2022/04/19 04:16:53;;;;;;;;;8.75;7.00;;;;;;;;5071375;27;49659;-68
2022/04/19 04:19:18;;;;;;;;;7.25;7.25;;;;;;;;5071620;28;49660;-68
2022/04/19 04:21:43;;;;;;;;;8.50;8.00;;;;;;;;5071424;27;50944;-68
2022/04/19 04:24:08;;;;;;;;;6.25;6.25;;;;;;;;5071532;27;49747;-68
2022/04/19 04:26:34;;;;;;;;;6.50;6.50;;;;;;;;5071600;28;49737;-68
2022/04/19 04:28:59;;;;;;;;;5.75;4.25;;;;;;;;5071742;27;49944;-68
2022/04/19 04:31:24;;;;;;;;;6.00;4.25;;;;;;;;5070915;28;49713;-68
2022/04/19 04:33:49;;;;;;;;;7.00;5.25;;;;;;;;5071440;28;49890;-68
2022/04/19 04:36:14;;;;;;;;;3.75;3.75;;;;;;;;5071377;28;49971;-68
2022/04/19 04:38:40;;;;;;;;;3.00;2.00;;;;;;;;5053090;28;49978;-68
2022/04/19 04:41:05;;;;;;;;;8.00;6.00;;;;;;;;5071035;28;50871;-68
2022/04/19 04:43:30;;;;;;;;;3.00;3.00;;;;;;;;5071193;28;49755;-68
2022/04/19 04:51:23;;;;;;;;;8.25;4.50;;;;;;;;5066699;28;50058;-68
2022/04/19 04:53:48;;;;;;;;;2.25;2.25;;;;;;;;5052411;28;49886;-68
2022/04/19 04:56:13;;;;;;;;;4.75;4.75;;;;;;;;5052675;28;49852;-68
2022/04/19 04:58:39;;;;;;;;;2.25;1.25;;;;;;;;5071188;28;49624;-67
2022/04/19 05:01:04;;;;;;;;;7.50;5.75;;;;;;;;5070536;27;50347;-68
2022/04/19 05:03:29;;;;;;;;;1.50;1.00;;;;;;;;5071145;28;49605;-67
2022/04/19 05:05:54;;;;;;;;;8.50;4.25;;;;;;;;5071040;28;49862;-67
2022/04/19 05:08:19;;;;;;;;;3.25;3.25;;;;;;;;5071129;28;50157;-67
2022/04/19 05:10:44;;;;;;;;;5.00;5.00;;;;;;;;5069579;28;50546;-67
2022/04/19 05:13:10;;;;;;;;;6.00;5.00;;;;;;;;5070510;28;49748;-67
2022/04/19 05:15:35;;;;;;;;;4.25;4.25;;;;;;;;5070552;28;49787;-67
2022/04/19 05:18:00;;;;;;;;;6.75;5.50;;;;;;;;5070723;28;49954;-68
2022/04/19 05:20:25;;;;;;;;;9.50;7.00;;;;;;;;5070589;28;49885;-67
2022/04/19 05:22:51;;;;;;;;;8.00;4.00;;;;;;;;5070593;28;49801;-68
2022/04/19 05:25:16;;;;;;;;;10.75;6.75;;;;;;;;5052554;28;49799;-67
2022/04/19 05:27:41;;;;;;;;;7.50;5.50;;;;;;;;5052664;28;50168;-67
2022/04/19 05:30:06;;;;;;;;;8.00;3.25;;;;;;;;5070122;28;49750;-67
2022/04/19 05:32:32;;;;;;;;;5.25;4.00;;;;;;;;5070475;28;50010;-67
2022/04/19 05:34:57;;;;;;;;;6.00;5.00;;;;;;;;5070574;28;49913;-66
2022/04/19 05:37:22;;;;;;;;;6.00;4.75;;;;;;;;5052290;27;50093;-68
2022/04/19 05:39:47;;;;;;;;;6.75;6.00;;;;;;;;5070258;28;50004;-67
2022/04/19 05:42:12;;;;;;;;;5.25;4.00;;;;;;;;5073609;28;49928;-68
2022/04/19 05:44:38;;;;;;;;;8.00;7.00;;;;;;;;5070136;27;49637;-70
2022/04/19 05:47:04;;;;;;;;;11.75;8.50;;;;;;;;5073083;28;49838;-67
2022/04/19 05:49:29;;;;;;;;;7.75;7.25;;;;;;;;5070232;28;50370;-67
2022/04/19 05:51:54;;;;;;;;;8.25;4.50;;;;;;;;5070021;28;49762;-66
2022/04/19 05:54:20;;;;;;;;;5.75;5.25;;;;;;;;5070235;28;49951;-72
2022/04/19 05:56:45;;;;;;;;;7.50;4.75;;;;;;;;5070450;28;49696;-71
2022/04/19 05:59:10;;;;;;;;;6.75;4.50;;;;;;;;5069951;28;49793;-68
2022/04/19 06:07:03;;;;;;;;;7.75;5.50;;;;;;;;5070306;28;49674;-66
2022/04/19 06:09:29;;;;;;;;;8.50;6.00;;;;;;;;5070030;28;49738;-66
2022/04/19 06:11:54;;;;;;;;;8.00;8.00;;;;;;;;5069985;28;49900;-70
2022/04/19 06:14:19;;;;;;;;;7.50;7.00;;;;;;;;5070278;28;50335;-71
2022/04/19 06:16:44;;;;;;;;;13.50;11.00;;;;;;;;5069951;28;49711;-69
2022/04/19 06:19:09;;;;;;;;;9.50;9.00;;;;;;;;5072106;28;49723;-67
2022/04/19 06:21:35;;;;;;;;;10.50;9.00;;;;;;;;5070160;28;49636;-67
2022/04/19 06:24:03;;;;;;;;;11.50;11.25;;;;;;;;5072948;28;49801;-72
2022/04/19 06:26:28;;;;;;;;;14.00;10.00;;;;;;;;5055275;28;49755;-68
2022/04/19 06:28:53;;;;;;;;;12.25;9.50;;;;;;;;5075982;27;50421;-68
2022/04/19 06:31:19;;;;;;;;;14.00;12.50;;;;;;;;5073057;28;49848;-68
2022/04/19 06:33:44;;;;;;;;;14.00;9.00;;;;;;;;5073204;27;49849;-67
2022/04/19 06:36:10;;;;;;;;;15.00;11.00;;;;;;;;5073392;28;49668;-67
2022/04/19 06:38:35;;;;;;;;;13.50;12.25;;;;;;;;5072886;28;50160;-67
2022/04/19 06:41:00;;;;;;;;;14.75;13.50;;;;;;;;5072743;28;49650;-67
2022/04/19 06:43:26;;;;;;;;;20.25;15.00;;;;;;;;5073298;28;50048;-67
2022/04/19 06:45:51;;;;;;;;;16.00;14.25;;;;;;;;5072873;28;49539;-67
2022/04/19 06:48:16;;;;;;;;;22.00;18.50;;;;;;;;5081420;27;50755;-69
2022/04/19 06:50:41;;;;;;;;;17.25;15.75;;;;;;;;5077446;27;49769;-68
2022/04/19 06:53:06;;;;;;;;;15.25;12.75;;;;;;;;5077762;27;49817;-68
2022/04/19 06:55:32;;;;;;;;;19.00;15.00;;;;;;;;5085186;27;50022;-66
2022/04/19 06:57:57;;;;;;;;;11.00;11.00;;;;;;;;5076250;28;49652;-68
2022/04/19 07:00:22;;;;;;;;;16.25;15.00;;;;;;;;5071650;28;49958;-69
2022/04/19 07:02:48;;;;;;;;;13.25;9.75;;;;;;;;5072051;28;49735;-68
2022/04/19 07:05:13;;;;;;;;;16.75;14.75;;;;;;;;5052730;28;49980;-68
2022/04/19 07:07:41;;;;;;;;;13.50;10.75;;;;;;;;5072271;28;50501;-68
2022/04/19 07:10:06;;;;;;;;;18.75;13.75;;;;;;;;5047767;28;49767;-68
2022/04/19 07:12:32;;;;;;;;;18.25;17.00;;;;;;;;5072307;28;49770;-67
2022/04/19 07:14:57;;;;;;;;;21.00;17.00;;;;;;;;5072482;28;49889;-67
2022/04/19 07:17:22;;;;;;;;;18.25;17.75;;;;;;;;5072032;27;50443;-67
2022/04/19 07:28:00;;;;;;;;;14.50;14.25;;;;;;;;5076079;27;49874;-66
2022/04/19 07:30:25;;;;;;;;;18.75;17.50;;;;;;;;5076862;27;49735;-66
2022/04/19 07:32:50;;;;;;;;;20.50;18.25;;;;;;;;5074628;27;49714;-65
2022/04/19 07:35:15;;;;;;;;;13.75;13.75;;;;;;;;5074747;27;49706;-66
2022/04/19 07:37:40;;;;;;;;;12.75;12.75;;;;;;;;5072314;28;50547;-67
2022/04/19 07:40:06;;;;;;;;;17.75;16.00;;;;;;;;5053769;28;49817;-66
2022/04/19 07:42:31;;;;;;;;;15.00;14.75;;;;;;;;5072474;28;49942;-68
2022/04/19 07:44:56;;;;;;;;;25.50;14.00;;;;;;;;5072115;28;49903;-67
2022/04/19 07:47:22;;;;;;;;;13.00;13.00;;;;;;;;5071990;28;50360;-66
2022/04/19 07:49:49;;;;;;;;;17.00;15.25;;;;;;;;5071986;28;49786;-67
2022/04/19 07:52:14;;;;;;;;;17.75;16.00;;;;;;;;5072317;28;49926;-66
2022/04/19 07:54:40;;;;;;;;;19.25;14.25;;;;;;;;5071714;27;49819;-67
2022/04/19 07:57:05;;;;;;;;;19.75;17.50;;;;;;;;5053427;28;51558;-67
2022/04/19 07:59:30;;;;;;;;;14.75;13.25;;;;;;;;5071502;28;49674;-68
2022/04/19 08:01:55;;;;;;;;;15.25;15.25;;;;;;;;5072036;28;49871;-67
2022/04/19 08:04:21;;;;;;;;;14.25;14.25;;;;;;;;5072399;28;49866;-68
2022/04/19 08:06:46;;;;;;;;;20.50;17.50;;;;;;;;5071674;28;50229;-68
2022/04/19 08:09:11;;;;;;;;;16.50;11.75;;;;;;;;5071673;28;49738;-68
2022/04/19 08:11:37;;;;;;;;;13.50;9.50;;;;;;;;5071698;28;49679;-67
2022/04/19 08:14:02;;;;;;;;;15.00;14.50;;;;;;;;5071772;28;49902;-67
2022/04/19 08:16:27;;;;;;;;;17.25;16.00;;;;;;;;5071231;28;50642;-67
2022/04/19 08:18:53;;;;;;;;;19.00;14.75;;;;;;;;5071675;28;49730;-68
2022/04/19 08:21:18;;;;;;;;;17.75;15.00;;;;;;;;5071792;28;49804;-67
2022/04/19 08:23:43;;;;;;;;;18.00;16.00;;;;;;;;5071585;28;49555;-67
2022/04/19 08:26:09;;;;;;;;;17.00;15.50;;;;;;;;5071266;28;50356;-67
2022/04/19 08:28:36;;;;;;;;;13.50;11.75;;;;;;;;5071502;28;49840;-68
2022/04/19 08:31:01;;;;;;;;;15.75;13.50;;;;;;;;5071078;28;49926;-68
2022/04/19 08:33:26;;;;;;;;;15.75;11.25;;;;;;;;5071494;28;49565;-67
2022/04/19 08:35:51;;;;;;;;;11.00;10.00;;;;;;;;5071253;28;50220;-67
2022/04/19 08:38:17;;;;;;;;;12.00;12.00;;;;;;;;5071634;28;49959;-67
2022/04/19 08:40:42;;;;;;;;;13.25;12.00;;;;;;;;5071335;28;49792;-67
2022/04/19 08:43:07;;;;;;;;;15.00;15.00;;;;;;;;5071509;28;49825;-68
2022/04/19 08:45:33;;;;;;;;;12.00;11.75;;;;;;;;5070592;28;49753;-68
2022/04/19 08:48:00;;;;;;;;;13.00;12.00;;;;;;;;5071036;28;49688;-68
2022/04/19 08:50:27;;;;;;;;;11.00;11.00;;;;;;;;5064595;28;49808;-67
2022/04/19 08:58:21;;;;;;;;;11.25;9.00;;;;;;;;5071025;28;49802;-68
2022/04/19 09:00:46;;;;;;;;;10.50;10.50;;;;;;;;5070829;28;50026;-67
2022/04/19 09:03:11;;;;;;;;;14.75;13.75;;;;;;;;5071145;28;49838;-67
2022/04/19 09:05:49;;;;;;;;;12.00;9.75;;;;;;;;5070793;28;49766;-68
2022/04/19 09:08:14;;;;;;;;;10.00;10.00;;;;;;;;5070784;28;49765;-67
2022/04/19 09:10:40;;;;;;;;;10.75;9.00;;;;;;;;5070959;28;49540;-68
2022/04/19 09:13:09;;;;;;;;;11.00;10.00;;;;;;;;5071067;28;49654;-68
2022/04/19 09:15:38;;;;;;;;;12.00;11.00;;;;;;;;5070550;27;50335;-67
2022/04/19 09:18:04;;;;;;;;;11.00;11.00;;;;;;;;5070757;28;49693;-67
2022/04/19 09:20:31;;;;;;;;;10.50;7.50;;;;;;;;5071174;28;49931;-67
2022/04/19 09:23:01;;;;;;;;;11.75;11.75;;;;;;;;5070808;28;49517;-68
2022/04/19 09:25:26;;;;;;;;;9.75;9.75;;;;;;;;5070509;28;50978;-67
2022/04/19 09:27:54;;;;;;;;;12.00;11.00;;;;;;;;5070377;28;49779;-67
2022/04/19 09:30:20;;;;;;;;;8.25;8.25;;;;;;;;5052562;27;49907;-67
2022/04/19 09:33:00;;;;;;;;;14.25;11.25;;;;;;;;5070747;27;49735;-67
2022/04/19 09:35:29;;;;;;;;;16.25;12.25;;;;;;;;5070503;28;50410;-67
2022/04/19 09:37:55;;;;;;;;;9.00;8.50;;;;;;;;5070507;28;49878;-67
2022/04/19 09:40:27;;;;;;;;;13.25;11.50;;;;;;;;5070163;28;49744;-66
2022/04/19 09:42:54;;;;;;;;;13.75;11.25;;;;;;;;5070457;28;49656;-66
2022/04/19 09:45:19;;;;;;;;;18.75;16.50;;;;;;;;5051638;28;50542;-66
2022/04/19 09:47:51;;;;;;;;;13.50;13.25;;;;;;;;5070517;28;50129;-66
2022/04/19 09:50:16;;;;;;;;;16.00;13.50;;;;;;;;5070475;28;49929;-67
2022/04/19 09:52:48;;;;;;;;;18.50;15.00;;;;;;;;5070921;28;49768;-67
2022/04/19 09:55:14;;;;;;;;;14.50;12.25;;;;;;;;5069899;27;49748;-67
2022/04/19 09:57:40;;;;;;;;;14.00;14.00;;;;;;;;5071332;28;49760;-67
2022/04/19 10:00:06;;;;;;;;;20.50;13.50;;;;;;;;5073333;28;49642;-66
2022/04/19 10:10:47;;;;;;;;;16.50;15.25;;;;;;;;5073612;28;49664;-67
2022/04/19 10:13:13;;;;;;;;;14.25;12.00;;;;;;;;5073760;28;49675;-67
2022/04/19 10:15:39;;;;;;;;;9.00;9.00;;;;;;;;5073094;28;49728;-67
2022/04/19 10:18:05;;;;;;;;;16.25;12.00;;;;;;;;5073209;28;49697;-67
2022/04/19 10:20:32;;;;;;;;;18.00;15.50;;;;;;;;5073104;27;49637;-66
2022/04/19 10:23:04;;;;;;;;;15.75;13.50;;;;;;;;5073855;27;49898;-66
2022/04/19 10:25:55;;;;;;;;;14.25;11.50;;;;;;;;5073310;28;49751;-71
2022/04/19 10:28:28;;;;;;;;;18.50;14.00;;;;;;;;5069105;27;49831;-66
2022/04/19 10:30:53;;;;;;;;;20.75;17.75;;;;;;;;5073391;28;49822;-66
2022/04/19 10:33:37;;;;;;;;;20.00;19.75;;;;;;;;5054849;28;49840;-67
2022/04/19 10:36:22;;;;;;;;;20.00;19.75;;;;;;;;5073156;28;50963;-67
2022/04/19 10:39:07;;;;;;;;;21.50;15.50;;;;;;;;5072970;28;49659;-66
2022/04/19 10:42:02;;;;;;;;;23.50;18.00;;;;;;;;5072943;28;49794;-66
2022/04/19 10:44:36;;;;;;;;;16.75;14.50;;;;;;;;5055608;27;49788;-67
2022/04/19 10:47:15;;;;;;;;;18.75;16.00;;;;;;;;5072877;28;50629;-67
2022/04/19 10:49:49;;;;;;;;;14.75;12.50;;;;;;;;5054318;28;49920;-67
2022/04/19 10:52:33;;;;;;;;;18.00;16.50;;;;;;;;5072900;27;49807;-69
2022/04/19 10:55:03;;;;;;;;;20.00;18.25;;;;;;;;5072822;27;49544;-73
2022/04/19 11:00:27;;;;;;;;;16.75;16.75;;;;;;;;5072695;28;49773;-74
2022/04/19 11:03:02;;;;;;;;;16.00;16.00;;;;;;;;5072639;28;50043;-68
2022/04/19 11:05:34;;;;;;;;;9.50;9.50;;;;;;;;5054787;28;49934;-68
2022/04/19 11:08:18;;;;;;;;;19.25;14.50;;;;;;;;5054040;28;51570;-67
2022/04/19 11:10:43;;;;;;;;;18.50;14.75;;;;;;;;5071684;28;49811;-66
2022/04/19 11:13:09;;;;;;;;;22.00;15.50;;;;;;;;5072396;28;49776;-70
2022/04/19 11:15:37;;;;;;;;;18.25;16.00;;;;;;;;5072441;28;49851;-67
2022/04/19 11:18:22;;;;;;;;;18.00;14.75;;;;;;;;5072220;28;49783;-66
2022/04/19 11:20:47;;;;;;;;;13.75;12.00;;;;;;;;5072307;27;49673;-69
2022/04/19 11:23:19;;;;;;;;;17.75;17.75;;;;;;;;5072521;28;50366;-72
2022/04/19 11:25:45;;;;;;;;;16.50;14.75;;;;;;;;5066846;27;49777;-70
2022/04/19 11:28:11;;;;;;;;;11.00;7.00;;;;;;;;5072264;28;50476;-70
2022/04/19 11:30:37;;;;;;;;;16.00;13.50;;;;;;;;5053794;28;49821;-71
2022/04/19 11:33:04;;;;;;;;;18.75;17.75;;;;;;;;5061317;28;49911;-72
2022/04/19 11:35:32;;;;;;;;;17.75;15.25;;;;;;;;5065311;28;49859;-75
2022/04/19 11:37:57;;;;;;;;;13.50;13.25;;;;;;;;5072403;28;50534;-71
2022/04/19 11:48:38;;;;;;;;;13.75;11.50;;;;;;;;5071753;28;50242;-66
2022/04/19 11:51:07;;;;;;;;;9.25;7.75;;;;;;;;5071911;28;49730;-69
2022/04/19 11:53:33;;;;;;;;;16.75;13.50;;;;;;;;5064823;28;50125;-67
2022/04/19 11:55:59;;;;;;;;;13.50;11.25;;;;;;;;5070116;28;49683;-66
2022/04/19 11:58:24;;;;;;;;;12.00;12.00;;;;;;;;5070051;28;49671;-65
2022/04/19 12:00:58;;;;;;;;;12.00;12.00;;;;;;;;5070708;28;49751;-67
2022/04/19 12:03:24;;;;;;;;;16.50;13.25;;;;;;;;5072211;28;49956;-66
2022/04/19 12:05:51;;;;;;;;;13.50;11.50;;;;;;;;5071778;28;49747;-67
2022/04/19 12:08:33;;;;;;;;;18.25;13.25;;;;;;;;5071408;28;50803;-66
2022/04/19 12:10:59;;;;;;;;;15.00;11.75;;;;;;;;5071659;28;49613;-68
2022/04/19 12:13:24;;;;;;;;;11.25;10.25;;;;;;;;5071845;28;49652;-67
2022/04/19 12:15:50;;;;;;;;;12.75;11.00;;;;;;;;5071689;28;49646;-70
2022/04/19 12:18:34;;;;;;;;;11.50;11.00;;;;;;;;5071523;28;49636;-66
2022/04/19 12:21:00;;;;;;;;;15.50;12.25;;;;;;;;5071047;28;49697;-66
2022/04/19 12:23:25;;;;;;;;;9.75;9.00;;;;;;;;5071415;28;49896;-68
2022/04/19 12:26:20;;;;;;;;;9.75;9.75;;;;;;;;5071631;28;49712;-66
2022/04/19 12:28:46;;;;;;;;;8.75;6.00;;;;;;;;5053692;28;50773;-65
2022/04/19 12:31:33;;;;;;;;;11.00;6.75;;;;;;;;5071317;28;49685;-65
2022/04/19 12:34:00;;;;;;;;;7.00;6.00;;;;;;;;5071680;28;50000;-65
2022/04/19 12:36:27;;;;;;;;;6.00;5.75;;;;;;;;5071584;28;49792;-65
2022/04/19 12:39:02;;;;;;;;;13.50;8.00;;;;;;;;5071575;28;50396;-65
2022/04/19 12:41:44;;;;;;;;;3.00;3.00;;;;;;;;5071043;28;49618;-66
2022/04/19 12:44:13;;;;;;;;;8.25;8.00;;;;;;;;5071420;28;50067;-65
2022/04/19 12:46:40;;;;;;;;;11.00;10.25;;;;;;;;5071141;28;49623;-65
2022/04/19 12:49:05;;;;;;;;;6.00;4.75;;;;;;;;5071011;27;49675;-66
2022/04/19 12:51:30;;;;;;;;;6.50;6.50;;;;;;;;5071108;27;50040;-66
2022/04/19 12:54:06;;;;;;;;;5.00;3.75;;;;;;;;5070999;28;49865;-66
2022/04/19 12:56:32;;;;;;;;;5.00;5.00;;;;;;;;5071264;28;49729;-64
2022/04/19 12:58:58;;;;;;;;;6.25;6.25;;;;;;;;5052397;28;53030;-65
2022/04/19 13:01:23;;;;;;;;;5.50;3.50;;;;;;;;5070596;28;49771;-66
2022/04/19 13:03:48;;;;;;;;;9.00;6.75;;;;;;;;5070890;28;49872;-65
2022/04/19 13:14:26;;;;;;;;;7.75;7.75;;;;;;;;5070587;28;49711;-66
2022/04/19 13:16:51;;;;;;;;;7.50;7.00;;;;;;;;5070962;28;49751;-66
2022/04/19 13:19:16;;;;;;;;;6.75;4.25;;;;;;;;5070696;28;50644;-66
2022/04/19 13:21:41;;;;;;;;;7.00;7.00;;;;;;;;5070669;28;49742;-66
2022/04/19 13:24:06;;;;;;;;;9.00;8.00;;;;;;;;5070836;28;49752;-67
2022/04/19 13:26:32;;;;;;;;;6.00;6.00;;;;;;;;5070982;28;49649;-66
2022/04/19 13:28:57;;;;;;;;;7.00;7.00;;;;;;;;5070760;28;50904;-65
2022/04/19 13:31:23;;;;;;;;;6.00;6.00;;;;;;;;5070181;28;49759;-66
2022/04/19 13:33:48;;;;;;;;;8.00;6.25;;;;;;;;5069944;28;49834;-66
2022/04/19 13:36:13;;;;;;;;;6.00;4.25;;;;;;;;5070831;28;49718;-66
2022/04/19 13:38:39;;;;;;;;;6.00;5.75;;;;;;;;5069984;28;49851;-67
2022/04/19 13:41:04;;;;;;;;;6.00;4.50;;;;;;;;5070332;28;49818;-66
2022/04/19 13:43:29;;;;;;;;;6.25;5.00;;;;;;;;5070651;27;49780;-67
2022/04/19 13:45:54;;;;;;;;;7.25;6.25;;;;;;;;5069893;28;49667;-66
2022/04/19 13:48:19;;;;;;;;;5.00;5.00;;;;;;;;5070118;27;50459;-66
2022/04/19 13:50:45;;;;;;;;;6.25;5.25;;;;;;;;5070376;28;49757;-66
2022/04/19 13:53:10;;;;;;;;;6.00;5.75;;;;;;;;5070676;28;49848;-66
2022/04/19 13:55:36;;;;;;;;;4.25;4.00;;;;;;;;5070140;28;49598;-66
2022/04/19 13:58:01;;;;;;;;;7.25;6.50;;;;;;;;5070425;28;51019;-67
2022/04/19 14:00:27;;;;;;;;;9.00;8.00;;;;;;;;5069900;28;49653;-66
2022/04/19 14:02:53;;;;;;;;;7.50;6.00;;;;;;;;5070272;28;49844;-65
2022/04/19 14:05:18;;;;;;;;;9.50;7.50;;;;;;;;5070644;28;49951;-66
2022/04/19 14:07:43;;;;;;;;;7.25;5.50;;;;;;;;5070465;28;50640;-66
2022/04/19 14:10:10;;;;;;;;;7.25;7.25;;;;;;;;5069904;28;49543;-65
2022/04/19 14:12:35;;;;;;;;;6.75;6.75;;;;;;;;5069866;27;49810;-66
2022/04/19 14:15:01;;;;;;;;;6.00;3.75;;;;;;;;5069766;28;49688;-65
2022/04/19 14:17:26;;;;;;;;;11.25;7.50;;;;;;;;5057865;28;50981;-66
2022/04/19 14:19:51;;;;;;;;;8.75;5.50;;;;;;;;5070386;28;49773;-70
2022/04/19 14:22:17;;;;;;;;;7.50;7.50;;;;;;;;5079348;28;49317;-66
2022/04/19 14:24:43;;;;;;;;;9.00;9.00;;;;;;;;5073120;28;49959;-66
2022/04/19 14:27:08;;;;;;;;;7.75;6.25;;;;;;;;5069626;28;49618;-66
2022/04/19 14:35:01;;;;;;;;;6.00;6.00;;;;;;;;5068841;28;49878;-67
2022/04/19 14:37:26;;;;;;;;;6.00;3.75;;;;;;;;5069104;28;50431;-66
2022/04/19 14:39:51;;;;;;;;;5.50;4.50;;;;;;;;5069440;27;49762;-66
2022/04/19 14:42:17;;;;;;;;;6.50;6.00;;;;;;;;5069814;28;49803;-66
2022/04/19 14:44:42;;;;;;;;;7.25;6.50;;;;;;;;5071380;28;49607;-66
2022/04/19 14:47:07;;;;;;;;;9.25;8.00;;;;;;;;5075091;27;49805;-69
2022/04/19 14:49:32;;;;;;;;;7.50;7.00;;;;;;;;5074551;27;49719;-71
2022/04/19 14:52:18;;;;;;;;;7.75;7.75;;;;;;;;5057747;28;49751;-67
2022/04/19 14:54:46;;;;;;;;;8.75;7.25;;;;;;;;5072973;28;49922;-68
2022/04/19 14:57:12;;;;;;;;;8.00;7.00;;;;;;;;5072844;27;49952;-68
2022/04/19 14:59:37;;;;;;;;;9.00;7.00;;;;;;;;5072492;27;49846;-67
2022/04/19 15:02:04;;;;;;;;;5.25;5.25;;;;;;;;5073474;28;49708;-65
2022/04/19 15:04:29;;;;;;;;;7.25;7.25;;;;;;;;5072996;28;49930;-65
2022/04/19 15:06:54;;;;;;;;;5.00;5.00;;;;;;;;5072624;28;50627;-65
2022/04/19 15:09:20;;;;;;;;;5.00;5.00;;;;;;;;5072655;28;49772;-64
2022/04/19 15:11:45;;;;;;;;;5.75;5.25;;;;;;;;5072782;28;49790;-69
2022/04/19 15:14:10;;;;;;;;;5.75;5.75;;;;;;;;5074389;28;49822;-63
2022/04/19 15:16:36;;;;;;;;;6.25;6.00;;;;;;;;5075715;27;49800;-64
2022/04/19 15:19:01;;;;;;;;;9.00;7.25;;;;;;;;5073035;28;49702;-64
2022/04/19 15:21:26;;;;;;;;;6.00;4.50;;;;;;;;5073544;28;50049;-63
2022/04/19 15:23:52;;;;;;;;;7.25;5.50;;;;;;;;5073061;27;49997;-66
2022/04/19 15:26:18;;;;;;;;;6.50;5.00;;;;;;;;5072242;28;49826;-63
2022/04/19 15:28:43;;;;;;;;;4.75;4.75;;;;;;;;5071795;28;49909;-68
2022/04/19 15:31:08;;;;;;;;;7.75;7.75;;;;;;;;5072595;28;49780;-63